Latest Weather Observations for Hamilton Island

IDQ60801

Issued at 1:22 am EST Friday 3 July 2020 (issued every 10 minutes, with the page automatically refreshed every 10 minutes)

About weather observations | Map of weather stations | Latest weather observations for QLD | Other Formats
Station Details ID: 033106 Name: HAMILTON ISLAND AIRPORT Lat: -20.37 Lon: 148.95 Height: 58.66 m
Data from the previous 72 hours. | See also: Recent months at Hamilton Island
Date/Time
EST
Temp
°C
App
Temp
°C
Dew
Point
°C
Rel
Hum
%
Delta-T
°C
Wind Press
QNH
hPa
Press
MSL
hPa
Rain since
9am
mm
Dir  Spd
km/h
Gust
km/h
Spd
kts
Gust
kts
03/01:00am 20.2 17.7 16.2 78 2.4 SE 24 30 13 16 1020.9 1020.7 0.0
03/12:30am 20.3 17.6 15.7 75 2.7 SE 24 28 13 15 1021.1 1020.9 0.0
03/12:00am 20.4 17.8 16.0 76 2.6 SE 24 30 13 16 1021.2 1021.0 0.0
 
Date/Time
EST
Temp
°C
App
Temp
°C
Dew
Point
°C
Rel
Hum
%
Delta-T
°C
Wind Press
QNH
hPa
Press
MSL
hPa
Rain since
9am
mm
Dir  Spd
km/h
Gust
km/h
Spd
kts
Gust
kts
02/11:30pm 20.4 17.8 16.0 76 2.6 SE 24 30 13 16 1021.2 1021.0 0.0
02/11:00pm 20.3 17.6 15.5 74 2.8 SE 24 28 13 15 1021.5 1021.3 0.0
02/10:30pm 20.3 17.6 15.5 74 2.9 SE 24 28 13 15 1021.7 1021.5 0.0
02/10:00pm 20.4 17.7 15.6 74 2.8 SE 24 26 13 14 1021.5 1021.3 0.0
02/09:30pm 20.4 17.3 15.6 74 2.9 SE 26 28 14 15 1021.4 1021.2 0.0
02/09:00pm 20.5 17.9 15.9 75 2.7 SE 24 28 13 15 1021.1 1020.9 0.0
02/08:30pm 20.3 18.1 15.9 76 2.6 SE 22 26 12 14 1021.1 1020.9 0.0
02/08:00pm 20.4 17.4 15.8 75 2.7 SE 26 28 14 15 1020.9 1020.7 0.0
02/07:30pm 20.4 18.7 16.2 77 2.5 SE 20 24 11 13 1020.7 1020.5 0.0
02/07:00pm 20.3 18.4 15.7 75 2.7 SE 20 24 11 13 1020.2 1020.0 0.0
02/06:30pm 20.6 18.2 15.4 72 3.1 SE 22 26 12 14 1019.9 1019.7 0.0
02/06:00pm 20.7 17.8 15.0 70 3.4 SE 24 28 13 15 1019.8 1019.6 0.0
02/05:30pm 20.9 17.6 15.0 69 3.5 SE 26 30 14 16 1019.6 1019.4 0.0
02/05:00pm 21.4 18.0 14.8 66 3.9 ESE 26 32 14 17 1019.4 1019.2 0.0
02/04:30pm 21.7 18.7 14.8 65 4.1 SE 24 30 13 16 1019.3 1019.1 0.0
02/04:00pm 21.9 18.8 14.5 63 4.3 ESE 24 30 13 16 1019.3 1019.1 0.0
02/03:30pm 22.2 19.3 15.1 64 4.2 ESE 24 28 13 15 1019.3 1019.1 0.0
02/03:00pm 22.4 19.3 15.7 66 4.0 SE 26 30 14 16 1019.3 1019.1 0.0
02/02:30pm 22.7 20.1 16.0 66 4.1 ESE 24 28 13 15 1019.1 1018.9 0.0
02/02:00pm 22.7 18.7 15.3 63 4.4 ESE 30 32 16 17 1019.2 1019.0 0.0
02/01:30pm 22.8 19.3 15.4 63 4.4 ESE 28 33 15 18 1019.4 1019.2 0.0
02/01:00pm 22.8 19.1 15.9 65 4.2 ESE 30 35 16 19 1019.7 1019.5 0.0
02/12:30pm 23.0 19.4 16.3 66 4.1 ESE 30 35 16 19 1020.1 1019.9 0.0
02/12:00pm 23.0 19.4 16.3 66 4.1 ESE 30 33 16 18 1020.6 1020.4 0.0
02/11:30am 23.0 19.3 17.0 69 3.7 ESE 32 35 17 19 1020.7 1020.5 0.0
02/11:00am 22.9 18.8 16.4 67 4.0 ESE 33 37 18 20 1020.9 1020.7 0.0
02/10:30am 22.9 19.6 16.9 69 3.7 ESE 30 35 16 19 1021.0 1020.8 0.0
02/10:00am 22.4 19.0 16.7 70 3.5 ESE 30 35 16 19 1021.0 1020.8 0.0
02/09:30am 22.7 19.5 16.3 67 3.9 ESE 28 32 15 17 1021.0 1020.8 0.0
02/09:00am 22.5 19.1 16.8 70 3.5 ESE 30 35 16 19 1021.0 1020.8 0.0
02/08:30am 22.2 17.9 15.8 67 3.9 ESE 33 39 18 21 1020.7 1020.5 0.0
02/08:00am 21.8 18.2 16.3 71 3.3 ESE 30 35 16 19 1020.5 1020.3 0.0
02/07:30am 21.7 18.2 16.4 72 3.2 ESE 30 35 16 19 1020.2 1020.0 0.0
02/07:00am 21.0 17.3 16.0 73 3.0 ESE 30 35 16 19 1019.9 1019.7 0.0
02/06:30am 21.1 17.1 16.1 73 3.0 ESE 32 37 17 20 1019.5 1019.3 0.0
02/06:00am 20.9 16.7 15.7 72 3.1 ESE 32 37 17 20 1019.4 1019.2 0.0
02/05:30am 21.1 16.9 16.3 74 2.9 ESE 33 39 18 21 1019.3 1019.1 0.0
02/05:00am 21.1 17.8 16.9 77 2.6 ESE 30 33 16 18 1019.1 1018.9 0.0
02/04:30am 21.3 18.7 16.9 76 2.7 ESE 26 32 14 17 1019.1 1018.9 0.0
02/04:00am 21.2 17.8 15.7 71 3.3 ESE 28 33 15 18 1019.1 1018.9 0.0
02/03:30am 21.1 17.2 15.4 70 3.4 ESE 30 33 16 18 1019.0 1018.8 0.0
02/03:00am 21.1 17.2 15.6 71 3.3 ESE 30 33 16 18 1018.9 1018.7 0.0
02/02:30am 21.0 17.3 16.0 73 3.0 ESE 30 35 16 19 1019.0 1018.8 0.0
02/02:00am 21.2 16.3 15.3 69 3.5 ESE 35 39 19 21 1019.0 1018.8 0.0
02/01:30am 21.2 16.9 16.0 72 3.1 ESE 33 39 18 21 1019.1 1018.9 0.0
02/01:00am 21.3 15.8 15.8 71 3.3 E 39 44 21 24 1019.3 1019.1 0.0
02/12:30am 21.2 15.6 15.5 70 3.4 ESE 39 43 21 23 1019.4 1019.2 0.0
02/12:00am 21.3 16.5 16.5 74 2.9 ESE 37 44 20 24 1019.6 1019.4 0.0
 
Date/Time
EST
Temp
°C
App
Temp
°C
Dew
Point
°C
Rel
Hum
%
Delta-T
°C
Wind Press
QNH
hPa
Press
MSL
hPa
Rain since
9am
mm
Dir  Spd
km/h
Gust
km/h
Spd
kts
Gust
kts
01/11:30pm 21.3 16.6 16.9 76 2.7 ESE 37 44 20 24 1020.0 1019.8 0.0
01/11:00pm 21.4 15.3 16.1 72 3.2 ESE 43 48 23 26 1019.9 1019.7 0.0
01/10:30pm 21.3 15.5 16.0 72 3.2 ESE 41 48 22 26 1019.9 1019.7 0.0
01/10:00pm 21.2 16.8 15.7 71 3.3 ESE 33 43 18 23 1020.3 1020.1 0.0
01/09:30pm 20.4 18.3 17.2 82 2.0 SE 24 30 13 16 1020.2 1020.0 0.0
01/09:00pm 20.0 16.9 16.6 81 2.1 SE 28 32 15 17 1020.1 1019.9 0.0
01/08:42pm 19.5 12.9 16.3 82 1.9 SE 46 59 25 32 1020.1 1019.9 0.0
01/08:30pm 19.9 11.3 16.7 82 1.9 ESE 57 65 31 35 1019.9 1019.7 0.0
01/08:24pm 20.8 14.3 16.6 77 2.5 ESE 46 63 25 34 1019.7 1019.5 0.0
01/08:19pm 21.6 17.2 16.6 73 3.0 ESE 35 54 19 29 1019.8 1019.6 0.0
01/08:00pm 21.5 16.9 16.0 71 3.3 ESE 35 41 19 22 1019.7 1019.5 0.0
01/07:30pm 21.3 17.1 15.8 71 3.3 ESE 32 37 17 20 1019.4 1019.2 0.0
01/07:00pm 21.4 17.0 15.7 70 3.4 ESE 33 41 18 22 1019.1 1018.9 0.0
01/06:30pm 21.6 16.8 15.7 69 3.5 ESE 35 41 19 22 1018.8 1018.6 0.0
01/06:00pm 21.5 16.8 15.8 70 3.4 ESE 35 41 19 22 1018.3 1018.2 0.0
01/05:30pm 21.0 17.4 16.2 74 2.9 ESE 30 35 16 19 1018.2 1018.1 0.0
01/05:00pm 21.1 16.2 17.3 79 2.3 ESE 39 56 21 30 1017.8 1017.7 0.0
01/04:30pm 21.7 17.6 16.4 72 3.2 ESE 33 39 18 21 1017.7 1017.6 0.0
01/04:00pm 21.9 17.3 16.0 69 3.6 ESE 35 43 19 23 1017.5 1017.4 0.0
01/03:30pm 22.1 17.8 15.9 68 3.7 ESE 33 37 18 20 1017.4 1017.3 0.0
01/03:00pm 22.3 18.3 16.6 70 3.5 ESE 33 37 18 20 1017.4 1017.3 0.0
01/02:30pm 22.6 18.0 16.2 67 3.9 ESE 35 43 19 23 1017.5 1017.4 0.0
01/02:00pm 22.6 17.9 15.9 66 4.0 ESE 35 43 19 23 1017.6 1017.5 0.0
01/01:30pm 22.8 18.2 16.1 66 4.1 ESE 35 43 19 23 1017.8 1017.7 0.0
01/01:00pm 23.0 18.7 17.0 69 3.7 ESE 35 43 19 23 1018.1 1018.0 0.0
01/12:30pm 23.2 18.4 16.7 67 4.0 ESE 37 43 20 23 1018.3 1018.2 0.0
01/12:00pm 22.6 17.4 16.6 69 3.7 ESE 39 46 21 25 1018.6 1018.4 0.0
01/11:30am 22.9 17.9 17.1 70 3.6 ESE 39 46 21 25 1018.9 1018.7 0.0
01/11:00am 22.8 17.8 17.0 70 3.6 ESE 39 46 21 25 1019.1 1018.9 0.0
01/10:30am 23.0 18.6 17.5 71 3.4 ESE 37 46 20 25 1019.4 1019.2 0.0
01/10:00am 22.0 17.2 17.6 76 2.7 ESE 39 44 21 24 1019.5 1019.3 0.0
01/09:30am 22.0 18.2 18.0 78 2.5 SE 35 44 19 24 1019.6 1019.4 0.0
01/09:00am 22.4 17.9 17.3 73 3.1 ESE 37 43 20 23 1019.5 1019.3 11.8
01/08:30am 22.4 17.3 16.9 71 3.4 ESE 39 44 21 24 1019.1 1018.9 11.8
01/08:00am 22.0 17.2 16.5 71 3.3 ESE 37 43 20 23 1019.0 1018.8 11.8
01/07:30am 21.7 16.3 16.0 70 3.4 ESE 39 46 21 25 1018.8 1018.6 11.8
01/07:00am 21.5 15.6 16.7 74 2.9 ESE 43 50 23 27 1018.6 1018.4 11.8
01/06:30am 21.4 15.0 15.9 71 3.3 ESE 44 52 24 28 1018.3 1018.2 11.8
01/06:00am 21.4 15.5 16.6 74 2.9 ESE 43 50 23 27 1018.0 1017.9 11.8
01/05:30am 21.3 15.6 16.3 73 3.0 ESE 41 50 22 27 1017.8 1017.7 11.8
01/05:00am 21.3 15.8 16.7 75 2.8 ESE 41 46 22 25 1017.7 1017.5 11.8
01/04:30am 21.3 17.2 17.3 78 2.5 SE 35 44 19 24 1017.6 1017.4 11.8
01/04:00am 21.3 16.6 17.7 80 2.2 SE 39 48 21 26 1017.5 1017.3 11.8
01/03:30am 21.4 16.1 17.2 77 2.6 ESE 41 46 22 25 1017.4 1017.2 11.8
01/03:00am 21.4 15.4 16.4 73 3.0 ESE 43 48 23 26 1017.4 1017.2 11.8
01/02:30am 21.4 15.5 16.6 74 2.9 ESE 43 50 23 27 1017.5 1017.3 11.8
01/02:00am 20.5 15.7 17.5 83 1.8 ESE 39 56 21 30 1017.8 1017.7 11.8
01/01:46am 20.6 18.2 18.2 86 1.5 E 28 50 15 27 1017.7 1017.5 11.8
01/01:34am 20.2 18.5 18.1 88 1.3 E 24 33 13 18 1017.9 1017.8 11.8
01/01:30am 20.1 18.1 18.2 89 1.2 E 26 41 14 22 1018.0 1017.9 11.8
01/01:15am 20.3 16.6 18.4 89 1.2 E 35 46 19 25 1018.0 1017.9 11.8
01/01:08am 20.9 15.6 18.1 84 1.7 ESE 43 52 23 28 1018.0 1017.9 11.8
01/01:00am 21.4 15.8 17.4 78 2.5 ESE 43 52 23 28 1017.9 1017.8 11.8
01/12:51am 20.9 17.3 17.3 80 2.2 ESE 32 52 17 28 1018.1 1018.0 11.8
01/12:30am 20.8 18.1 18.4 86 1.5 ESE 30 46 16 25 1018.6 1018.4 11.8
01/12:15am 20.4 16.1 17.0 81 2.1 SE 35 44 19 24 1018.7 1018.5 11.8
01/12:01am 19.4 13.7 17.2 87 1.3 ESE 43 52 23 28 1018.9 1018.7 11.4
01/12:00am 19.4 13.7 17.2 87 1.3 E 43 52 23 28 1018.9 1018.7 11.4
 
Date/Time
EST
Temp
°C
App
Temp
°C
Dew
Point
°C
Rel
Hum
%
Delta-T
°C
Wind Press
QNH
hPa
Press
MSL
hPa
Rain since
9am
mm
Dir  Spd
km/h
Gust
km/h
Spd
kts
Gust
kts
30/11:30pm 20.2 16.5 17.4 84 1.7 ESE 33 41 18 22 1019.0 1018.8 11.4
30/11:00pm 19.3 15.3 18.6 96 0.4 SE 37 46 20 25 1019.0 1018.8 11.4
30/10:46pm 19.0 13.2 18.3 96 0.4 ESE 46 54 25 29 1019.0 1018.8 11.4
30/10:30pm 19.5 14.4 19.0 97 0.3 ESE 44 52 24 28 1019.3 1019.1 11.2
30/10:17pm 19.8 14.6 18.8 94 0.6 ESE 44 54 24 29 1019.1 1018.9 10.8
30/10:00pm 20.0 15.3 18.7 92 0.8 ESE 41 52 22 28 1019.2 1019.0 10.8
30/09:55pm 20.0 16.7 18.3 90 1.1 ESE 33 52 18 28 1019.1 1018.9 10.6
30/09:30pm 19.7 14.9 18.4 92 0.8 ESE 41 48 22 26 1019.3 1019.1 10.6
30/09:00pm 19.3 12.1 17.8 91 0.9 ESE 52 69 28 37 1019.1 1018.9 10.6
30/08:55pm 20.7 15.5 18.3 86 1.5 E 43 61 23 33 1018.8 1018.6 10.6
30/08:36pm 19.7 14.4 18.2 91 0.9 E 43 52 23 28 1019.0 1018.8 10.6
30/08:30pm 19.6 13.0 18.1 91 0.9 E 50 65 27 35 1019.0 1018.8 10.6
30/08:17pm 20.0 14.8 18.7 92 0.8 ESE 44 61 24 33 1018.7 1018.5 10.6
30/08:16pm 20.4 15.6 19.2 93 0.8 ESE 43 61 23 33 1018.8 1018.6 10.6
30/08:00pm 19.4 13.4 17.9 91 0.9 ESE 46 54 25 29 1018.8 1018.6 10.6
30/07:55pm 19.6 13.4 18.3 92 0.8 ESE 48 57 26 31 1018.8 1018.6 10.6
30/07:40pm 19.6 16.2 19.1 97 0.3 SE 35 57 19 31 1018.6 1018.4 10.6
30/07:34pm 19.6 16.7 19.3 98 0.2 SE 33 37 18 20 1018.6 1018.4 10.6
30/07:30pm 19.5 16.6 19.3 99 0.1 SE 33 37 18 20 1018.6 1018.4 10.6
30/07:09pm 19.6 14.6 19.3 98 0.2 ESE 44 52 24 28 1018.3 1018.2 10.2
30/07:03pm 19.5 14.0 19.0 97 0.3 ESE 46 57 25 31 1018.2 1018.1 10.0
30/07:00pm 19.7 14.7 19.2 97 0.3 E 44 57 24 31 1018.1 1018.0 10.0
30/06:54pm 19.6 16.7 19.3 98 0.2 E 33 52 18 28 1017.9 1017.8 10.0
30/06:52pm 19.7 16.9 19.4 98 0.2 ESE 33 50 18 27 1018.0 1017.9 10.0
30/06:50pm 19.6 16.3 19.3 98 0.2 ESE 35 50 19 27 1018.2 1018.1 10.0
30/06:38pm 19.7 15.9 19.0 96 0.4 E 37 48 20 26 1017.9 1017.8 9.0
30/06:33pm 19.4 16.4 18.7 96 0.4 ESE 32 46 17 25 1017.8 1017.7 9.0
30/06:31pm 19.5 17.3 18.7 95 0.5 ESE 28 46 15 25 1017.8 1017.7 9.0
30/06:30pm 19.5 17.7 18.7 95 0.5 ESE 26 41 14 22 1017.9 1017.8 9.0
30/06:16pm 19.8 17.1 19.3 97 0.3 ESE 32 37 17 20 1017.8 1017.7 9.0
30/06:11pm 19.5 16.7 19.0 97 0.3 ESE 32 37 17 20 1017.8 1017.7 9.0
30/06:00pm 18.9 15.7 18.7 99 0.1 ESE 33 43 18 23 1017.8 1017.7 9.0
30/05:55pm 19.2 15.8 19.0 99 0.1 ESE 35 52 19 28 1017.8 1017.7 8.6
30/05:46pm 19.5 15.1 19.3 99 0.1 SE 41 52 22 28 1017.6 1017.4 8.2
30/05:40pm 19.5 16.6 19.3 99 0.1 SSE 33 41 18 22 1017.5 1017.3 5.4
30/05:36pm 19.4 17.0 19.2 99 0.1 SE 30 37 16 20 1017.5 1017.3 5.4
30/05:31pm 19.5 17.6 19.3 99 0.1 SE 28 32 15 17 1017.6 1017.4 5.4
30/05:30pm 19.4 17.4 19.2 99 0.1 SE 28 32 15 17 1017.6 1017.4 5.4
30/05:23pm 19.1 17.0 18.9 99 0.1 SE 28 33 15 18 1017.6 1017.4 5.4
30/05:00pm 19.2 15.1 18.2 94 0.6 SE 37 67 20 36 1017.4 1017.2 2.6
30/04:58pm 19.4 15.6 18.1 92 0.8 SE 35 67 19 36 1017.3 1017.1 1.2
30/04:57pm 19.8 16.6 18.5 92 0.8 SSE 33 67 18 36 1017.3 1017.1 1.0
30/04:46pm 20.1 17.0 18.9 93 0.8 SSE 33 43 18 23 1017.2 1017.0 1.0
30/04:30pm 20.2 15.9 18.7 91 0.9 SSE 39 43 21 23 1017.0 1016.8 1.0
30/04:09pm 20.4 15.8 18.9 91 0.9 SSE 41 48 22 26 1017.0 1016.8 1.0
30/04:00pm 20.4 15.7 18.7 90 1.1 SSE 41 46 22 25 1016.9 1016.7 1.0
30/03:30pm 20.6 16.4 18.9 90 1.1 SSE 39 44 21 24 1016.8 1016.6 1.0
30/03:20pm 20.4 15.6 18.3 88 1.3 SSE 41 46 22 25 1016.7 1016.5 1.0
30/03:00pm 20.1 15.9 18.8 92 0.8 SSE 39 46 21 25 1016.8 1016.6 1.0
30/02:30pm 20.2 14.6 18.7 91 0.9 SSE 46 54 25 29 1016.7 1016.5 1.0
30/02:00pm 20.3 15.2 18.6 90 1.1 SSE 43 54 23 29 1016.9 1016.7 1.0
30/01:30pm 20.3 15.2 18.6 90 1.1 SSE 43 50 23 27 1017.0 1016.8 1.0
30/01:00pm 20.6 16.1 19.1 91 0.9 SSE 41 48 22 26 1017.4 1017.2 1.0
30/12:30pm 20.0 16.2 19.0 94 0.6 SSE 37 46 20 25 1017.9 1017.8 1.0
30/12:00pm 19.3 14.8 18.3 94 0.6 SSE 39 48 21 26 1018.6 1018.4 1.0
30/11:49am 19.2 14.8 18.5 96 0.4 SSE 39 50 21 27 1018.7 1018.5 1.0
30/11:30am 19.0 15.1 18.8 99 0.1 SSE 37 44 20 24 1019.0 1018.8 1.0
30/11:08am 18.9 14.9 18.4 97 0.3 SSE 37 48 20 26 1019.3 1019.1 0.2
30/11:00am 18.8 15.0 18.1 96 0.4 SSE 35 48 19 26 1019.5 1019.3 0.2
30/10:43am 19.0 15.4 18.5 97 0.3 SSE 35 46 19 25 1019.5 1019.3 0.2
30/10:30am 19.0 15.8 18.7 98 0.2 SSE 33 43 18 23 1019.6 1019.4 0.2
30/10:24am 18.8 15.2 18.5 98 0.2 SSE 35 44 19 24 1019.8 1019.6 0.2
30/10:00am 18.9 15.3 18.6 98 0.2 SSE 35 43 19 23 1019.9 1019.7 0.2
30/09:58am 18.9 15.3 18.6 98 0.2 SSE 35 43 19 23 1019.9 1019.7 0.2
30/09:44am 18.7 14.7 18.4 98 0.2 SSE 37 48 20 26 1019.9 1019.7 0.2
30/09:30am 18.8 14.6 18.1 96 0.4 SSE 37 44 20 24 1019.9 1019.7 0.0
30/09:21am 18.7 15.3 18.2 97 0.3 SSE 33 43 18 23 1019.9 1019.7 0.0
30/09:00am 18.8 14.8 18.5 98 0.2 SSE 37 46 20 25 1020.0 1019.8 0.4
30/08:58am 18.7 14.6 18.2 97 0.3 SSE 37 46 20 25 1020.0 1019.8 0.4
30/08:46am 18.6 14.8 18.1 97 0.3 SSE 35 44 19 24 1019.9 1019.7 0.2
30/08:30am 18.5 13.9 17.9 96 0.4 SSE 39 48 21 26 1019.7 1019.5 0.2
30/08:23am 18.5 13.8 17.7 95 0.5 SSE 39 48 21 26 1019.7 1019.5 0.2
30/08:00am 18.6 14.2 17.6 94 0.6 SSE 37 46 20 25 1019.4 1019.2 0.2
30/07:30am 18.6 13.7 17.4 93 0.7 SSE 39 46 21 25 1019.2 1019.0 0.2
30/07:00am 18.6 13.4 17.4 93 0.7 SSE 41 48 22 26 1018.9 1018.7 0.2
30/06:30am 18.4 13.9 17.4 94 0.6 SSE 37 48 20 26 1018.8 1018.6 0.2
30/06:00am 18.6 14.7 17.9 96 0.4 SSE 35 46 19 25 1018.3 1018.2 0.2
30/05:30am 18.3 14.3 17.7 96 0.4 SSE 35 46 19 25 1018.0 1017.9 0.2
30/05:08am 18.3 14.0 17.8 97 0.3 SSE 37 50 20 27 1018.0 1017.9 0.2
30/05:00am 18.1 13.3 17.6 97 0.3 SSE 39 50 21 27 1018.0 1017.9 0.2
30/04:46am 18.3 14.0 17.7 96 0.4 SSE 37 46 20 25 1018.1 1018.0 0.2
30/04:30am 18.7 13.4 17.2 91 0.9 SSE 41 50 22 27 1018.1 1018.0 0.2
30/04:00am 18.8 15.2 17.1 90 1.0 S 32 44 17 24 1018.1 1018.0 0.2
30/03:30am 18.7 14.5 17.2 91 0.9 SSE 35 46 19 25 1017.9 1017.8 0.2
30/03:00am 18.7 15.2 17.9 95 0.5 SSE 33 44 18 24 1017.9 1017.8 0.2
30/02:40am 18.8 14.8 17.6 93 0.7 SSE 35 43 19 23 1017.8 1017.7 0.2
30/02:33am 18.9 15.3 17.7 93 0.7 SSE 33 43 18 23 1017.9 1017.8 0.2
30/02:30am 19.0 15.5 18.0 94 0.6 SSE 33 43 18 23 1018.0 1017.9 0.2
30/02:17am 18.9 15.4 17.9 94 0.6 SSE 33 41 18 22 1018.1 1018.0 0.2
30/02:16am 18.9 15.4 17.9 94 0.6 SSE 33 41 18 22 1018.1 1018.0 0.2
30/02:00am 18.8 15.2 17.6 93 0.7 SSE 33 43 18 23 1018.2 1018.1 0.2
30/01:30am 18.9 16.2 17.6 92 0.8 S 28 35 15 19 1018.7 1018.5 0.2

Other formats

Comma delimited format used in spreadsheet applications
http://www.bom.gov.au/fwo/IDQ60801/IDQ60801.94368.axf

JavaScript Object Notation format (JSON) in row-major order
http://www.bom.gov.au/fwo/IDQ60801/IDQ60801.94368.json

Data quality

Most of these data are generated automatically and are frequently updated. Quality checks on data are not normally performed. It is possible for incorrect values to appear. Refer to information at About Latest Weather Observations and please check the disclaimer before using these data.